»·PEaware :: UAL936 KLAS-KDEN

UAL936 :: KLAS-KDEN

FLIGHT INFORMATION

Flight Status: Arrived
Operator:
United Airlines
More flights by this operator :: More flights under this callsign
Pilot: Max W. (2591)
Aircraft: BOEING 777-200
(B772)
More flights by this aircraft type
Origin: KLAS McCarran Intl
United States
Destination: KDEN Denver Intl
United States
More flights between these airports :: More routes between these airports
Route: STAAV8 DVC WOLLF TELLR2
File this flight plan on PilotEdge
Remarks: FAILED THE CAT 2 SORRY
Altitude:
(Current/Filed)
39,000ft
Speed:
(Current/Filed)
450kts
Departed: 28-Apr-19 04:26 PM
Arrived: 28-Apr-19 05:46 PM
Distance/Time
Traveled:
546nm/1:20
Distance/Time
To Go:
Arrived

Flight Plot

Page will automatically refresh every two minutes.

Flight plan parsing failed; only flown route is shown


Map Options




Map Legend


Flown Route
Filed Route
Departure Airport
Arrival Airport
Navaid (VOR, NDB)
Fix

Horizontal Profiles

Position Reports

Time Latitude Longitude Heading Altitude Ground
Speed
28-Apr-19 15:59 36.079943 -115.140403 68 2128ft 0kts
28-Apr-19 16:00 36.079943 -115.140403 68 2128ft 0kts
28-Apr-19 16:01 36.079943 -115.140403 68 2128ft 0kts
28-Apr-19 16:02 36.079943 -115.140403 68 2128ft 0kts
28-Apr-19 16:03 36.079943 -115.140403 68 2128ft 0kts
28-Apr-19 16:04 36.079943 -115.140403 68 2128ft 0kts
28-Apr-19 16:05 36.079943 -115.140403 68 2128ft 0kts
28-Apr-19 16:06 36.079943 -115.140403 68 2128ft 0kts
28-Apr-19 16:07 36.079943 -115.140403 68 2128ft 0kts
28-Apr-19 16:08 36.079943 -115.140403 68 2128ft 0kts
28-Apr-19 16:09 36.079805 -115.140832 68 2128ft 2kts
28-Apr-19 16:10 36.079628 -115.141382 68 2128ft 0kts
28-Apr-19 16:11 36.079628 -115.141382 68 2128ft 0kts
28-Apr-19 16:12 36.079628 -115.141382 68 2128ft 0kts
28-Apr-19 16:13 36.079628 -115.141381 68 2128ft 0kts
28-Apr-19 16:14 36.078969 -115.139683 171 2128ft 0kts
28-Apr-19 16:15 36.078968 -115.139683 171 2128ft 0kts
28-Apr-19 16:16 36.078968 -115.139683 171 2128ft 0kts
28-Apr-19 16:17 36.078967 -115.139683 171 2128ft 0kts
28-Apr-19 16:18 36.078420 -115.139409 126 2128ft 14kts
28-Apr-19 16:19 36.077550 -115.133934 90 2128ft 22kts
28-Apr-19 16:20 36.077496 -115.126793 88 2128ft 19kts
28-Apr-19 16:21 36.077530 -115.123932 92 2128ft 1kts
28-Apr-19 16:22 36.077525 -115.123544 90 2128ft 0kts
28-Apr-19 16:23 36.077525 -115.123543 90 2128ft 0kts
28-Apr-19 16:24 36.076357 -115.122006 266 2128ft 0kts
28-Apr-19 16:25 36.076319 -115.130867 268 2129ft 149kts
28-Apr-19 16:26 36.076564 -115.202161 268 6239ft 238kts
28-Apr-19 16:27 36.088073 -115.282607 313 11101ft 255kts
28-Apr-19 16:28 36.158332 -115.285509 32 15439ft 292kts
28-Apr-19 16:29 36.193796 -115.189700 79 18560ft 351kts
28-Apr-19 16:30 36.198405 -115.051544 91 18691ft 429kts
28-Apr-19 16:31 36.199310 -114.901482 90 20575ft 444kts
28-Apr-19 16:32 36.200280 -114.743714 92 24177ft 473kts
28-Apr-19 16:33 36.198339 -114.575941 93 27416ft 502kts
28-Apr-19 16:34 36.195987 -114.398196 94 30312ft 527kts
28-Apr-19 16:35 36.196964 -114.215255 88 33380ft 533kts
28-Apr-19 16:36 36.218285 -114.033308 84 36122ft 531kts
28-Apr-19 16:37 36.239614 -113.853523 85 38395ft 526kts
28-Apr-19 16:38 36.261002 -113.674082 84 38827ft 526kts
28-Apr-19 16:39 36.282053 -113.494120 85 38863ft 527kts
28-Apr-19 16:40 36.302151 -113.314304 85 38873ft 527kts
28-Apr-19 16:41 36.341674 -113.138813 66 38887ft 533kts
28-Apr-19 16:42 36.405181 -112.972565 65 38911ft 533kts
28-Apr-19 16:43 36.467088 -112.805353 65 38922ft 533kts
28-Apr-19 16:44 36.529941 -112.636162 66 38922ft 544kts
28-Apr-19 16:45 36.592507 -112.465276 66 38908ft 542kts
28-Apr-19 16:46 36.654671 -112.294370 66 38902ft 543kts
28-Apr-19 16:47 36.716828 -112.122512 66 38893ft 543kts
28-Apr-19 16:48 36.778716 -111.950425 66 38868ft 543kts
28-Apr-19 16:49 36.840283 -111.778277 66 38832ft 544kts
28-Apr-19 16:50 36.901734 -111.605483 66 38799ft 545kts
28-Apr-19 16:51 36.963157 -111.431776 66 38790ft 546kts
28-Apr-19 16:52 37.024236 -111.258038 66 38796ft 546kts
28-Apr-19 16:53 37.085123 -111.083845 66 38810ft 547kts
28-Apr-19 16:54 37.146013 -110.908638 66 38824ft 548kts
28-Apr-19 16:55 37.206521 -110.733500 66 38834ft 548kts
28-Apr-19 16:56 37.267031 -110.557322 66 38851ft 549kts
28-Apr-19 16:57 37.327176 -110.381172 66 38866ft 550kts
28-Apr-19 16:58 37.387114 -110.204572 66 38884ft 551kts
28-Apr-19 16:59 37.447041 -110.026944 66 38902ft 550kts
28-Apr-19 17:00 37.506627 -109.849257 66 38920ft 552kts
28-Apr-19 17:01 37.566005 -109.671109 66 38933ft 552kts
28-Apr-19 17:02 37.625311 -109.492082 66 38929ft 552kts
28-Apr-19 17:03 37.684151 -109.313374 66 38925ft 552kts
28-Apr-19 17:04 37.743155 -109.133883 67 38915ft 552kts
28-Apr-19 17:05 37.799723 -108.959262 66 38908ft 547kts
28-Apr-19 17:06 37.870965 -108.800068 54 38908ft 506kts
28-Apr-19 17:07 37.949181 -108.642712 56 38915ft 541kts
28-Apr-19 17:08 38.029355 -108.478339 55 38949ft 558kts
28-Apr-19 17:09 38.110532 -108.310753 56 38961ft 556kts
28-Apr-19 17:10 38.191374 -108.142523 56 38983ft 556kts
28-Apr-19 17:11 38.271612 -107.974661 56 38965ft 556kts
28-Apr-19 17:12 38.352200 -107.805865 56 38949ft 557kts
28-Apr-19 17:13 38.432013 -107.636529 56 38951ft 558kts
28-Apr-19 17:14 38.510073 -107.464917 58 38987ft 560kts
28-Apr-19 17:15 38.587384 -107.291248 58 38969ft 562kts
28-Apr-19 17:16 38.664976 -107.117871 57 39013ft 563kts
28-Apr-19 17:17 38.742609 -106.943777 58 38897ft 558kts
28-Apr-19 17:18 38.817882 -106.772276 58 36207ft 553kts
28-Apr-19 17:19 38.895058 -106.600254 55 33226ft 552kts
28-Apr-19 17:20 38.972112 -106.433886 56 30838ft 540kts
28-Apr-19 17:21 39.046236 -106.271995 56 29079ft 515kts
28-Apr-19 17:22 39.117317 -106.114204 57 26952ft 500kts
28-Apr-19 17:23 39.185427 -105.960940 58 24839ft 484kts
28-Apr-19 17:24 39.250061 -105.813862 58 22991ft 466kts
28-Apr-19 17:25 39.312115 -105.671539 58 21327ft 446kts
28-Apr-19 17:26 39.369527 -105.540530 57 19815ft 386kts
28-Apr-19 17:27 39.399403 -105.413067 86 17234ft 363kts
28-Apr-19 17:28 39.403812 -105.285428 86 15793ft 366kts
28-Apr-19 17:29 39.413701 -105.155565 69 14332ft 356kts
28-Apr-19 17:30 39.463563 -105.049706 52 13270ft 336kts
28-Apr-19 17:31 39.515989 -104.950611 52 11959ft 333kts
28-Apr-19 17:32 39.567902 -104.852299 51 10749ft 315kts
28-Apr-19 17:33 39.617709 -104.758205 52 10820ft 311kts
28-Apr-19 17:34 39.661798 -104.673610 52 10794ft 253kts
28-Apr-19 17:35 39.699336 -104.601560 51 10827ft 239kts
28-Apr-19 17:36 39.733259 -104.536491 50 10784ft 189kts
28-Apr-19 17:37 39.744000 -104.465237 89 10505ft 218kts
28-Apr-19 17:38 39.762745 -104.403164 37 8486ft 173kts
28-Apr-19 17:39 39.808846 -104.395198 335 8197ft 162kts
28-Apr-19 17:40 39.841447 -104.431027 310 7563ft 145kts
28-Apr-19 17:41 39.867320 -104.475668 297 7413ft 159kts
28-Apr-19 17:43 39.876983 -104.531414 271 7138ft 169kts
28-Apr-19 17:44 39.877075 -104.589429 276 5989ft 153kts
28-Apr-19 17:45 39.877460 -104.637899 274 5445ft 102kts
28-Apr-19 17:46 39.876200 -104.647194 247 5444ft 0kts
28-Apr-19 17:47 39.876173 -104.647280 247 5444ft 6kts
28-Apr-19 17:48 39.875976 -104.652880 267 5444ft 17kts

Navigation Log

Ident Type
Flight plan parsing failed, navigation log unavailable